Elation — 3FOC5 — position and weather

sailwx.info

Track history (hours):
 
Tides and Currents Weather Stations Pressure Air Temp Water Temp Dewpoint Dewpoint Depression Visibility Wind Speed Wind Dir Waves Ship Positions

Elation

Operator: Carnival Cruise Lines

Last reported at 2017-Apr-28 02:30 UTC. Time now 2017-Apr-28 02:32 UTC.
Position N 29°44' W 080°40'.

Type: Ship. MMSI: 355831000.

Date/timePositionNaut miles runAvg speedWind from/ knotsBaromVisibWave heightAir tempDewpointWater temp
2017-Apr-28 02:30N 29°44' W 080°40'917.3
2017-Apr-28 02:00N 29°52' W 080°44'816.9
2017-Apr-28 01:30N 29°59' W 080°50'1017.0
2017-Apr-28 00:57N 30°06' W 080°57'716.6
2017-Apr-28 00:30N 30°11' W 081°03'1714.9
2017-Apr-27 23:24N 30°22' W 081°18'4 8.9
2017-Apr-27 23:00N 30°24' W 081°21'5 8.9
2017-Apr-27 22:29N 30°23' W 081°26'  
2017-Apr-25 05:23N 25°53' W 079°23'718.4
2017-Apr-25 05:00N 25°47' W 079°26'917.9
2017-Apr-25 04:30N 25°39' W 079°31'918.1
2017-Apr-25 04:00N 25°32' W 079°37'917.6
2017-Apr-25 03:30N 25°24' W 079°42'918.6
2017-Apr-25 03:00N 25°16' W 079°47'28 0.9
2017-Apr-23 19:45N 25°42' W 079°37'914.4
2017-Apr-23 19:07N 25°51' W 079°34'214.9
2017-Apr-23 19:00N 25°52' W 079°33'  
Track history (hours):
 
Tides and Currents Weather Stations Pressure Air Temp Water Temp Dewpoint Dewpoint Depression Visibility Wind Speed Wind Dir Waves Ship Positions

Elation

Operator: Carnival Cruise Lines

Last reported at 2017-Apr-28 02:30 UTC. Time now 2017-Apr-28 02:32 UTC.
Position N 29°44' W 080°40'.

Type: Ship. MMSI: 355831000.

Date/timePositionNaut miles runAvg speedWind from/ knotsBaromVisibWave heightAir tempDewpointWater temp
2017-Apr-28 02:30N 29°44' W 080°40'917.3
2017-Apr-28 02:00N 29°52' W 080°44'816.9
2017-Apr-28 01:30N 29°59' W 080°50'1017.0
2017-Apr-28 00:57N 30°06' W 080°57'716.6
2017-Apr-28 00:30N 30°11' W 081°03'1714.9
2017-Apr-27 23:24N 30°22' W 081°18'4 8.9
2017-Apr-27 23:00N 30°24' W 081°21'5 8.9
2017-Apr-27 22:29N 30°23' W 081°26'  
2017-Apr-25 05:23N 25°53' W 079°23'718.4
2017-Apr-25 05:00N 25°47' W 079°26'917.9
2017-Apr-25 04:30N 25°39' W 079°31'918.1
2017-Apr-25 04:00N 25°32' W 079°37'917.6
2017-Apr-25 03:30N 25°24' W 079°42'918.6
2017-Apr-25 03:00N 25°16' W 079°47'28 0.9
2017-Apr-23 19:45N 25°42' W 079°37'914.4
2017-Apr-23 19:07N 25°51' W 079°34'214.9
2017-Apr-23 19:00N 25°52' W 079°33'  

Dump ship's entire track history